createdAt,value
2023-01-07T00:01:16.555Z,100665.22
2023-01-07T00:03:44.777Z,100656.44
2023-01-07T00:06:14.442Z,100658.94
2023-01-07T00:08:46.429Z,100646.53
2023-01-07T00:11:16.469Z,100659.59
2023-01-07T00:13:44.435Z,100663.72
2023-01-07T00:16:14.366Z,100658.63
2023-01-07T00:18:42.816Z,100656.59
2023-01-07T00:21:13.277Z,100667.38
2023-01-07T00:23:43.844Z,100655.13
2023-01-07T00:26:14.096Z,100655.78
2023-01-07T00:28:43.351Z,100650.47
2023-01-07T00:31:17.567Z,100649.50
2023-01-07T00:33:51.699Z,100648.50
2023-01-07T00:36:20.169Z,100642.38
2023-01-07T00:38:49.217Z,100643.56
2023-01-07T00:41:16.958Z,100639.91
2023-01-07T00:43:44.581Z,100638.25
2023-01-07T00:46:14.856Z,100633.97
2023-01-07T00:48:42.717Z,100630.47
2023-01-07T00:51:11.503Z,100634.94
2023-01-07T00:53:39.177Z,100634.78
2023-01-07T00:56:10.042Z,100634.78
2023-01-07T00:58:38.123Z,100632.63
2023-01-07T01:01:06.676Z,100629.00
2023-01-07T01:03:35.328Z,100624.69
2023-01-07T01:06:04.219Z,100631.47
2023-01-07T01:08:33.218Z,100622.88
2023-01-07T01:11:04.883Z,100622.88
2023-01-07T01:13:34.588Z,100624.69
2023-01-07T01:16:02.474Z,100619.72
2023-01-07T01:18:30.608Z,100623.84
2023-01-07T01:21:04.301Z,100623.19
2023-01-07T01:23:31.975Z,100621.56
2023-01-07T01:26:03.956Z,100617.09
2023-01-07T01:28:31.903Z,100628.47
2023-01-07T01:31:01.170Z,100617.41
2023-01-07T01:33:35.482Z,100625.66
2023-01-07T01:36:05.317Z,100625.66
2023-01-07T01:38:33.052Z,100629.16
2023-01-07T01:41:00.972Z,100634.59
2023-01-07T01:43:32.331Z,100630.13
2023-01-07T01:46:05.564Z,100627.50
2023-01-07T01:48:36.623Z,100637.09
2023-01-07T01:51:05.139Z,100634.44
2023-01-07T01:53:35.061Z,100630.81
2023-01-07T01:56:08.515Z,100630.66
2023-01-07T01:58:40.075Z,100626.34
2023-01-07T02:01:10.009Z,100623.69
2023-01-07T02:03:39.605Z,100623.53
2023-01-07T02:06:13.868Z,100622.72
2023-01-07T02:08:41.902Z,100623.19
2023-01-07T02:11:22.714Z,100617.06
2023-01-07T02:14:02.699Z,100618.72
2023-01-07T02:16:38.757Z,100614.25
2023-01-07T02:19:34.348Z,100620.38
2023-01-07T02:22:07.439Z,100616.91
2023-01-07T02:25:01.296Z,100621.22
2023-01-07T02:27:48.302Z,100598.22
2023-01-07T02:30:43.877Z,100610.28
2023-01-07T02:33:24.694Z,100609.63
2023-01-07T02:36:15.807Z,100609.63
2023-01-07T02:38:53.776Z,100601.84
2023-01-07T02:41:32.654Z,100605.47
2023-01-07T02:44:05.833Z,100602.69
2023-01-07T02:46:41.285Z,100597.38
2023-01-07T02:49:11.829Z,100591.41
2023-01-07T02:51:41.517Z,100583.00
2023-01-07T02:54:14.241Z,100584.63
2023-01-07T02:57:07.891Z,100588.09
2023-01-07T02:59:56.025Z,100577.50
2023-01-07T03:02:38.504Z,100577.50
2023-01-07T03:05:25.136Z,100562.56
2023-01-07T03:08:14.131Z,100574.31
2023-01-07T03:10:49.620Z,100565.72
2023-01-07T03:13:22.778Z,100563.22
2023-01-07T03:15:57.503Z,100565.72
2023-01-07T03:18:28.637Z,100559.44
2023-01-07T03:21:04.784Z,100570.00
2023-01-07T03:23:36.982Z,100564.38
2023-01-07T03:26:07.404Z,100559.75
2023-01-07T03:28:41.510Z,100557.78
2023-01-07T03:31:13.354Z,100550.84
2023-01-07T03:33:44.412Z,100545.69
2023-01-07T03:36:18.142Z,100553.31
2023-01-07T03:38:48.085Z,100544.84
2023-01-07T03:41:36.097Z,100545.66
2023-01-07T03:44:02.990Z,100541.66
2023-01-07T03:46:30.558Z,100547.56
2023-01-07T03:48:58.216Z,100547.53
2023-01-07T03:51:27.289Z,100545.84
2023-01-07T03:53:54.942Z,100543.69
2023-01-07T03:56:25.141Z,100542.50
2023-01-07T03:58:52.870Z,100536.84
2023-01-07T04:01:20.724Z,100529.25
2023-01-07T04:03:48.951Z,100524.44
2023-01-07T04:06:17.788Z,100520.31
2023-01-07T04:08:47.043Z,100518.13
2023-01-07T04:11:15.215Z,100516.81
2023-01-07T04:13:42.976Z,100514.81
2023-01-07T04:16:10.727Z,100515.44
2023-01-07T04:18:38.503Z,100504.63
2023-01-07T04:21:06.921Z,100501.81
2023-01-07T04:23:34.695Z,100498.13
2023-01-07T04:26:03.964Z,100496.28
2023-01-07T04:28:32.463Z,100495.75
2023-01-07T04:31:01.120Z,100489.47
2023-01-07T04:33:28.939Z,100489.06
2023-01-07T04:35:57.939Z,100486.06
2023-01-07T04:38:26.479Z,100482.25
2023-01-07T04:40:55.711Z,100477.28
2023-01-07T04:43:25.240Z,100483.84
2023-01-07T04:45:53.025Z,100478.97
2023-01-07T04:48:21.331Z,100474.03
2023-01-07T04:50:52.029Z,100476.97
2023-01-07T04:53:20.277Z,100478.13
2023-01-07T04:55:49.113Z,100484.38
2023-01-07T04:58:17.368Z,100469.53
2023-01-07T05:00:48.182Z,100467.19
2023-01-07T05:03:16.125Z,100461.25
2023-01-07T05:05:44.660Z,100464.19
2023-01-07T05:08:12.409Z,100463.66
2023-01-07T05:10:40.900Z,100464.47
2023-01-07T05:13:08.720Z,100464.66
2023-01-07T05:15:36.615Z,100469.94
2023-01-07T05:18:07.212Z,100460.34
2023-01-07T05:20:35.288Z,100457.88
2023-01-07T05:23:05.569Z,100450.09
2023-01-07T05:25:34.788Z,100452.59
2023-01-07T05:28:02.821Z,100455.22
2023-01-07T05:30:32.717Z,100451.63
2023-01-07T05:33:00.422Z,100450.78
2023-01-07T05:35:30.355Z,100445.50
2023-01-07T05:37:58.013Z,100444.38
2023-01-07T05:40:25.739Z,100438.94
2023-01-07T05:42:53.691Z,100447.69
2023-01-07T05:45:22.169Z,100442.09
2023-01-07T05:47:50.316Z,100441.97
2023-01-07T05:50:18.119Z,100438.34
2023-01-07T05:52:47.444Z,100441.13
2023-01-07T05:55:15.245Z,100442.09
2023-01-07T05:57:42.891Z,100449.34
2023-01-07T06:00:11.687Z,100450.31
2023-01-07T06:02:42.008Z,100450.63
2023-01-07T06:05:10.868Z,100450.78
2023-01-07T06:07:38.544Z,100457.19
2023-01-07T06:10:08.303Z,100453.06
2023-01-07T06:12:35.968Z,100445.44
2023-01-07T06:15:03.644Z,100449.19
2023-01-07T06:17:31.311Z,100449.19
2023-01-07T06:19:59.090Z,100449.06
2023-01-07T06:22:26.944Z,100446.13
2023-01-07T06:24:54.624Z,100447.47
2023-01-07T06:27:23.749Z,100444.22
2023-01-07T06:29:51.418Z,100443.78
2023-01-07T06:32:19.067Z,100441.63
2023-01-07T06:34:46.726Z,100441.34
2023-01-07T06:37:14.876Z,100434.25
2023-01-07T06:39:42.634Z,100433.28
2023-01-07T06:42:10.344Z,100431.47
2023-01-07T06:44:39.445Z,100432.13
2023-01-07T06:47:07.136Z,100418.50
2023-01-07T06:49:34.784Z,100430.13
2023-01-07T06:52:02.556Z,100414.50
2023-01-07T06:54:30.224Z,100419.81
2023-01-07T06:56:57.898Z,100417.38
2023-01-07T06:59:25.568Z,100411.47
2023-01-07T07:01:54.754Z,100414.25
2023-01-07T07:04:22.587Z,100416.59
2023-01-07T07:06:50.246Z,100415.63
2023-01-07T07:09:17.898Z,100410.50
2023-01-07T07:11:45.591Z,100412.28
2023-01-07T07:14:13.328Z,100406.81
2023-01-07T07:16:41.038Z,100412.09
2023-01-07T07:19:10.288Z,100411.56
2023-01-07T07:21:37.992Z,100403.47
2023-01-07T07:24:06.425Z,100415.47
2023-01-07T07:26:34.107Z,100403.59
2023-01-07T07:29:01.837Z,100403.22
2023-01-07T07:31:29.595Z,100399.22
2023-01-07T07:33:57.418Z,100395.75
2023-01-07T07:36:26.503Z,100397.22
2023-01-07T07:38:54.423Z,100392.34
2023-01-07T07:41:23.271Z,100400.47
2023-01-07T07:43:51.614Z,100394.25
2023-01-07T07:46:19.358Z,100383.56
2023-01-07T07:48:49.568Z,100385.28
2023-01-07T07:51:17.716Z,100384.16
2023-01-07T07:53:46.791Z,100384.84
2023-01-07T07:56:14.522Z,100378.63
2023-01-07T07:58:42.938Z,100368.91
2023-01-07T08:01:10.796Z,100373.22
2023-01-07T08:03:38.584Z,100373.06
2023-01-07T08:06:07.000Z,100380.19
2023-01-07T08:08:34.694Z,100374.09
2023-01-07T08:11:05.710Z,100373.28
2023-01-07T08:13:33.405Z,100376.75
2023-01-07T08:16:01.358Z,100369.81
2023-01-07T08:18:29.093Z,100375.25
2023-01-07T08:20:56.821Z,100377.59
2023-01-07T08:23:24.568Z,100376.09
2023-01-07T08:25:52.225Z,100378.06
2023-01-07T08:28:21.230Z,100370.97
2023-01-07T08:30:48.931Z,100367.66
2023-01-07T08:33:16.597Z,100371.13
2023-01-07T08:35:45.394Z,100362.69
2023-01-07T08:38:13.231Z,100365.69
2023-01-07T08:40:40.934Z,100357.06
2023-01-07T08:43:09.582Z,100361.84
2023-01-07T08:45:38.816Z,100370.59
2023-01-07T08:48:07.220Z,100366.25
2023-01-07T08:50:35.232Z,100358.81
2023-01-07T08:53:03.023Z,100353.66
2023-01-07T08:55:30.724Z,100363.41
2023-01-07T08:57:58.528Z,100360.88
2023-01-07T09:00:26.612Z,100364.16
2023-01-07T09:02:55.638Z,100354.53
2023-01-07T09:05:24.466Z,100355.00
2023-01-07T09:07:53.116Z,100343.53
2023-01-07T09:10:21.354Z,100344.66
2023-01-07T09:12:49.111Z,100350.09
2023-01-07T09:15:16.928Z,100344.94
2023-01-07T09:17:44.612Z,100347.69
2023-01-07T09:20:13.964Z,100353.94
2023-01-07T09:22:42.691Z,100345.81
2023-01-07T09:25:10.838Z,100346.66
2023-01-07T09:27:39.269Z,100344.81
2023-01-07T09:30:09.375Z,100348.75
2023-01-07T09:32:37.260Z,100340.94
2023-01-07T09:35:05.517Z,100335.72
2023-01-07T09:37:34.600Z,100341.63
2023-01-07T09:40:02.325Z,100343.41
2023-01-07T09:42:38.691Z,100338.75
2023-01-07T09:45:14.882Z,100345.34
2023-01-07T09:47:45.597Z,100346.00
2023-01-07T09:50:20.630Z,100339.38
2023-01-07T09:52:52.697Z,100348.00
2023-01-07T09:55:26.827Z,100348.97
2023-01-07T09:57:54.601Z,100345.19
2023-01-07T10:00:25.066Z,100341.72
2023-01-07T10:03:08.047Z,100338.06
2023-01-07T10:05:43.298Z,100337.84
2023-01-07T10:08:29.281Z,100339.97
2023-01-07T10:11:07.050Z,100344.47
2023-01-07T10:13:49.301Z,100337.97
2023-01-07T10:16:24.659Z,100330.19
2023-01-07T10:19:03.269Z,100322.75
2023-01-07T10:21:41.097Z,100318.28
2023-01-07T10:24:21.685Z,100323.59
2023-01-07T10:26:53.254Z,100318.09
2023-01-07T10:29:28.562Z,100316.75
2023-01-07T10:32:00.897Z,100315.22
2023-01-07T10:34:35.381Z,100312.72
2023-01-07T10:37:07.099Z,100302.38
2023-01-07T10:39:57.726Z,100301.03
2023-01-07T10:42:32.350Z,100298.56
2023-01-07T10:45:21.459Z,100288.59
2023-01-07T10:48:01.179Z,100289.03
2023-01-07T10:50:46.967Z,100286.38
2023-01-07T10:53:26.806Z,100271.47
2023-01-07T10:56:03.575Z,100276.97
2023-01-07T10:58:37.317Z,100274.13
2023-01-07T11:01:06.092Z,100257.38
2023-01-07T11:03:34.753Z,100251.63
2023-01-07T11:06:07.239Z,100245.97
2023-01-07T11:08:39.304Z,100249.25
2023-01-07T11:11:15.503Z,100243.75
2023-01-07T11:13:47.975Z,100240.09
2023-01-07T11:16:23.488Z,100224.81
2023-01-07T11:18:55.941Z,100225.09
2023-01-07T11:21:43.456Z,100226.75
2023-01-07T11:24:32.834Z,100220.25
2023-01-07T11:27:05.974Z,100219.50
2023-01-07T11:29:39.986Z,100212.44
2023-01-07T11:32:19.615Z,100204.66
2023-01-07T11:34:53.942Z,100199.19
2023-01-07T11:37:33.227Z,100198.78
2023-01-07T11:40:02.759Z,100192.72
2023-01-07T11:42:40.814Z,100180.09
2023-01-07T11:45:13.575Z,100187.22
2023-01-07T11:47:47.239Z,100179.00
2023-01-07T11:50:26.315Z,100171.41
2023-01-07T11:53:03.348Z,100161.53
2023-01-07T11:55:31.783Z,100165.41
2023-01-07T11:58:29.405Z,100161.13
2023-01-07T12:01:04.718Z,100157.16
2023-01-07T12:03:32.596Z,100151.03
2023-01-07T12:06:06.789Z,100141.72
2023-01-07T12:08:34.822Z,100138.66
2023-01-07T12:11:08.773Z,100133.63
2023-01-07T12:13:41.512Z,100127.09
2023-01-07T12:16:11.088Z,100116.94
2023-01-07T12:19:04.456Z,100111.06
2023-01-07T12:21:35.139Z,100104.56
2023-01-07T12:24:19.267Z,100097.41
2023-01-07T12:26:55.393Z,100097.84
2023-01-07T12:29:38.591Z,100102.22
2023-01-07T12:32:21.177Z,100085.03
2023-01-07T12:34:55.887Z,100083.97
2023-01-07T12:37:32.140Z,100076.59
2023-01-07T12:40:12.204Z,100069.75
2023-01-07T12:42:44.026Z,100063.97
2023-01-07T12:45:20.525Z,100048.22
2023-01-07T12:47:51.554Z,100040.06
2023-01-07T12:50:26.361Z,100041.25
2023-01-07T12:53:00.030Z,100030.41
2023-01-07T12:55:31.659Z,100024.66
2023-01-07T12:58:07.352Z,100023.97
2023-01-07T13:00:43.611Z,100022.69
2023-01-07T13:03:25.962Z,100014.72
2023-01-07T13:05:57.487Z,100011.94
2023-01-07T13:08:33.141Z,100006.81
2023-01-07T13:11:08.532Z,100013.53
2023-01-07T13:13:41.622Z,100009.47
2023-01-07T13:16:12.101Z,100005.00
2023-01-07T13:18:39.964Z,100000.56
2023-01-07T13:21:09.985Z,99984.44
2023-01-07T13:24:00.142Z,99985.03
2023-01-07T13:26:35.319Z,99976.56
2023-01-07T13:29:17.240Z,99974.50
2023-01-07T13:32:09.418Z,99980.13
2023-01-07T13:34:48.592Z,99972.69
2023-01-07T13:37:35.166Z,99969.50
2023-01-07T13:40:19.928Z,99957.78
2023-01-07T13:42:52.995Z,99962.84
2023-01-07T13:45:24.201Z,99963.06
2023-01-07T13:47:55.452Z,99960.69
2023-01-07T13:50:32.275Z,99967.81
2023-01-07T13:53:03.462Z,99962.06
2023-01-07T13:55:42.103Z,99959.97
2023-01-07T13:58:36.297Z,99955.50
2023-01-07T14:01:07.191Z,99960.97
2023-01-07T14:03:41.600Z,99958.34
2023-01-07T14:06:43.286Z,99952.66
2023-01-07T14:09:33.221Z,99954.31
2023-01-07T14:12:30.395Z,99951.28
2023-01-07T14:15:10.995Z,99946.97
2023-01-07T14:17:49.099Z,99935.53
2023-01-07T14:20:25.538Z,99925.50
2023-01-07T14:23:00.310Z,99922.84
2023-01-07T14:25:46.868Z,99920.78
2023-01-07T14:28:33.966Z,99926.03
2023-01-07T14:31:02.056Z,99919.44
2023-01-07T14:33:35.169Z,99927.13
2023-01-07T14:36:07.523Z,99922.75
2023-01-07T14:39:00.159Z,99919.59
2023-01-07T14:41:28.331Z,99921.16
2023-01-07T14:44:05.604Z,99916.59
2023-01-07T14:46:53.204Z,99912.66
2023-01-07T14:49:46.064Z,99901.16
2023-01-07T14:52:32.160Z,99900.56
2023-01-07T14:55:19.080Z,99895.16
2023-01-07T14:57:58.970Z,99899.34
2023-01-07T15:00:50.614Z,99882.75
2023-01-07T15:03:33.161Z,99882.56
2023-01-07T15:06:27.312Z,99876.63
2023-01-07T15:09:22.416Z,99876.84
2023-01-07T15:12:10.274Z,99879.59
2023-01-07T15:15:01.160Z,99881.75
2023-01-07T15:17:29.082Z,99878.06
2023-01-07T15:19:57.652Z,99873.66
2023-01-07T15:22:46.152Z,99879.19
2023-01-07T15:25:26.907Z,99885.19
2023-01-07T15:28:04.435Z,99878.63
2023-01-07T15:30:41.658Z,99874.50
2023-01-07T15:33:30.763Z,99872.84
2023-01-07T15:35:58.911Z,99857.16
2023-01-07T15:38:29.919Z,99857.34
2023-01-07T15:41:00.033Z,99863.31
2023-01-07T15:43:30.721Z,99853.00
2023-01-07T15:46:00.765Z,99846.78
2023-01-07T15:48:28.988Z,99842.38
2023-01-07T15:50:56.986Z,99838.13
2023-01-07T15:53:27.125Z,99838.34
2023-01-07T15:55:59.546Z,99839.22
2023-01-07T15:58:35.665Z,99841.88
2023-01-07T16:01:04.906Z,99834.66
2023-01-07T16:03:33.919Z,99833.22
2023-01-07T16:06:01.819Z,99833.00
2023-01-07T16:08:33.298Z,99816.69
2023-01-07T16:11:03.379Z,99829.34
2023-01-07T16:13:35.066Z,99823.06
2023-01-07T16:16:06.447Z,99819.13
2023-01-07T16:18:34.319Z,99814.22
2023-01-07T16:21:05.556Z,99814.75
2023-01-07T16:23:34.668Z,99811.94
2023-01-07T16:26:06.064Z,99803.72
2023-01-07T16:28:40.435Z,99797.50
2023-01-07T16:31:11.462Z,99802.66
2023-01-07T16:33:40.864Z,99799.03
2023-01-07T16:36:15.503Z,99789.34
2023-01-07T16:38:45.587Z,99791.81
2023-01-07T16:41:21.501Z,99795.13
2023-01-07T16:43:52.497Z,99787.88
2023-01-07T16:46:25.301Z,99777.03
2023-01-07T16:49:18.375Z,99782.16
2023-01-07T16:51:49.876Z,99784.50
2023-01-07T16:54:31.079Z,99781.72
2023-01-07T16:57:00.504Z,99782.03
2023-01-07T16:59:32.195Z,99777.28
2023-01-07T17:02:03.001Z,99766.25
2023-01-07T17:04:31.419Z,99765.94
2023-01-07T17:07:01.564Z,99768.06
2023-01-07T17:09:34.996Z,99765.28
2023-01-07T17:12:03.186Z,99766.41
2023-01-07T17:14:50.619Z,99758.22
2023-01-07T17:17:28.074Z,99755.94
2023-01-07T17:20:02.666Z,99753.59
2023-01-07T17:22:32.946Z,99761.19
2023-01-07T17:25:04.567Z,99761.69
2023-01-07T17:27:32.864Z,99756.09
2023-01-07T17:30:04.984Z,99759.88
2023-01-07T17:32:43.094Z,99757.44
2023-01-07T17:35:17.897Z,99750.81
2023-01-07T17:37:45.799Z,99748.34
2023-01-07T17:40:15.178Z,99743.44
2023-01-07T17:43:00.817Z,99728.63
2023-01-07T17:45:32.929Z,99729.75
2023-01-07T17:48:01.411Z,99735.19
2023-01-07T17:50:35.897Z,99739.81
2023-01-07T17:53:04.252Z,99735.69
2023-01-07T17:55:36.219Z,99731.41
2023-01-07T17:58:05.762Z,99735.69
2023-01-07T18:00:36.546Z,99735.53
2023-01-07T18:03:04.605Z,99743.28
2023-01-07T18:05:32.392Z,99738.66
2023-01-07T18:08:00.107Z,99736.00
2023-01-07T18:10:50.278Z,99728.28
2023-01-07T18:13:16.954Z,99731.41
2023-01-07T18:15:45.997Z,99723.00
2023-01-07T18:18:13.758Z,99738.31
2023-01-07T18:20:41.429Z,99730.75
2023-01-07T18:23:10.203Z,99725.97
2023-01-07T18:25:37.997Z,99723.66
2023-01-07T18:28:05.835Z,99724.78
2023-01-07T18:30:36.474Z,99718.22
2023-01-07T18:33:07.573Z,99718.84
2023-01-07T18:35:35.526Z,99719.34
2023-01-07T18:38:03.686Z,99710.47
2023-01-07T18:40:31.973Z,99717.84
2023-01-07T18:43:00.907Z,99719.31
2023-01-07T18:45:28.601Z,99712.88
2023-01-07T18:47:56.310Z,99718.81
2023-01-07T18:50:25.721Z,99730.66
2023-01-07T18:52:53.391Z,99712.69
2023-01-07T18:55:21.088Z,99709.72
2023-01-07T18:57:48.813Z,99713.66
2023-01-07T19:00:17.552Z,99715.97
2023-01-07T19:02:45.238Z,99712.34
2023-01-07T19:05:13.236Z,99715.59
2023-01-07T19:07:43.310Z,99702.44
2023-01-07T19:10:11.476Z,99701.44
2023-01-07T19:12:39.194Z,99697.97
2023-01-07T19:15:07.891Z,99694.50
2023-01-07T19:17:35.711Z,99692.72
2023-01-07T19:20:03.390Z,99688.25
2023-01-07T19:22:31.191Z,99682.00
2023-01-07T19:25:00.243Z,99672.75
2023-01-07T19:27:27.925Z,99669.78
2023-01-07T19:29:55.599Z,99659.06
2023-01-07T19:32:23.315Z,99655.06
2023-01-07T19:34:52.346Z,99645.34
2023-01-07T19:37:21.825Z,99641.56
2023-01-07T19:39:49.530Z,99632.81
2023-01-07T19:42:18.560Z,99636.28
2023-01-07T19:44:46.248Z,99627.38
2023-01-07T19:47:13.950Z,99623.44
2023-01-07T19:49:41.837Z,99619.16
2023-01-07T19:52:09.674Z,99604.69
2023-01-07T19:54:37.385Z,99608.69
2023-01-07T19:57:05.275Z,99605.56
2023-01-07T19:59:34.956Z,99599.00
2023-01-07T20:02:03.584Z,99603.78
2023-01-07T20:04:31.619Z,99597.22
2023-01-07T20:06:59.346Z,99590.66
2023-01-07T20:09:27.075Z,99584.09
2023-01-07T20:11:54.839Z,99596.63
2023-01-07T20:14:22.471Z,99574.06
2023-01-07T20:16:51.543Z,99565.97
2023-01-07T20:19:19.301Z,99570.25
2023-01-07T20:21:46.955Z,99569.72
2023-01-07T20:24:14.853Z,99575.81
2023-01-07T20:26:42.589Z,99584.06
2023-01-07T20:29:10.279Z,99588.97
2023-01-07T20:31:38.061Z,99586.81
2023-01-07T20:34:07.385Z,99593.53
2023-01-07T20:36:35.116Z,99601.75
2023-01-07T20:39:05.763Z,99593.31
2023-01-07T20:41:35.514Z,99582.06
2023-01-07T20:44:05.547Z,99579.75
2023-01-07T20:46:34.676Z,99586.63
2023-01-07T20:49:03.090Z,99581.03
2023-01-07T20:51:32.177Z,99570.78
2023-01-07T20:53:59.863Z,99570.91
2023-01-07T20:56:31.748Z,99584.69
2023-01-07T20:59:00.480Z,99580.34
2023-01-07T21:01:29.415Z,99573.34
2023-01-07T21:03:57.227Z,99548.72
2023-01-07T21:06:25.271Z,99562.03
2023-01-07T21:08:54.266Z,99557.66
2023-01-07T21:11:23.673Z,99557.13
2023-01-07T21:13:52.110Z,99555.75
2023-01-07T21:16:19.928Z,99560.69
2023-01-07T21:18:47.967Z,99556.25
2023-01-07T21:21:17.377Z,99561.88
2023-01-07T21:23:46.698Z,99546.75
2023-01-07T21:26:16.304Z,99544.84
2023-01-07T21:28:44.864Z,99552.66
2023-01-07T21:31:15.178Z,99550.25
2023-01-07T21:33:43.376Z,99550.78
2023-01-07T21:36:13.170Z,99550.00
2023-01-07T21:38:40.875Z,99555.72
2023-01-07T21:41:09.607Z,99550.09
2023-01-07T21:43:38.977Z,99552.00
2023-01-07T21:46:07.649Z,99542.56
2023-01-07T21:48:36.027Z,99553.38
2023-01-07T21:51:05.718Z,99533.56
2023-01-07T21:53:34.526Z,99535.28
2023-01-07T21:56:06.263Z,99530.47
2023-01-07T21:58:34.039Z,99533.00
2023-01-07T22:01:03.225Z,99535.75
2023-01-07T22:03:30.937Z,99537.69
2023-01-07T22:05:59.448Z,99521.28
2023-01-07T22:08:27.567Z,99522.53
2023-01-07T22:10:55.274Z,99519.72
2023-01-07T22:13:23.044Z,99524.81
2023-01-07T22:15:51.069Z,99518.16
2023-01-07T22:18:20.128Z,99520.25
2023-01-07T22:20:53.799Z,99522.72
2023-01-07T22:23:21.527Z,99515.25
2023-01-07T22:25:49.292Z,99517.53
2023-01-07T22:28:18.859Z,99505.31
2023-01-07T22:30:52.403Z,99513.06
2023-01-07T22:33:22.507Z,99528.09
2023-01-07T22:35:51.021Z,99529.53
2023-01-07T22:38:21.115Z,99537.28
2023-01-07T22:40:49.078Z,99538.56
2023-01-07T22:43:20.483Z,99525.34
2023-01-07T22:45:54.339Z,99524.53
2023-01-07T22:48:27.304Z,99521.25
2023-01-07T22:51:00.139Z,99497.94
2023-01-07T22:53:30.026Z,99502.69
2023-01-07T22:55:59.124Z,99506.44
2023-01-07T22:58:27.169Z,99504.34
2023-01-07T23:01:12.690Z,99502.06
2023-01-07T23:03:43.490Z,99495.31
2023-01-07T23:06:13.861Z,99496.53
2023-01-07T23:08:42.389Z,99502.16
2023-01-07T23:11:10.612Z,99507.81
2023-01-07T23:13:38.858Z,99497.78
2023-01-07T23:16:07.529Z,99498.59
2023-01-07T23:18:35.856Z,99507.81
2023-01-07T23:21:06.545Z,99496.34
2023-01-07T23:23:34.255Z,99486.31
2023-01-07T23:26:01.980Z,99490.50
2023-01-07T23:28:29.675Z,99479.63
2023-01-07T23:31:01.530Z,99476.69
2023-01-07T23:33:29.293Z,99476.56
2023-01-07T23:36:02.432Z,99461.59
2023-01-07T23:38:31.808Z,99470.25
2023-01-07T23:41:03.343Z,99478.25
2023-01-07T23:43:31.308Z,99473.41
2023-01-07T23:45:59.432Z,99472.00
2023-01-07T23:48:27.744Z,99477.75
2023-01-07T23:50:56.504Z,99465.34
2023-01-07T23:53:24.429Z,99467.81
2023-01-07T23:55:54.423Z,99461.72
2023-01-07T23:58:23.192Z,99446.44
